createdAt,value
2019-04-29T00:03:23.562Z,2.94
2019-04-29T00:08:32.683Z,3.27
2019-04-29T00:13:41.762Z,3.28
2019-04-29T00:18:51.030Z,2.95
2019-04-29T00:24:03.866Z,3.26
2019-04-29T00:29:08.700Z,3.15
2019-04-29T00:34:17.762Z,3.51
2019-04-29T00:39:26.925Z,3.54
2019-04-29T00:44:35.966Z,3.45
2019-04-29T00:49:45.117Z,2.97
2019-04-29T00:54:54.138Z,3.35
2019-04-29T01:00:03.290Z,3.19
2019-04-29T01:05:12.327Z,3.29
2019-04-29T01:10:21.544Z,3.53
2019-04-29T01:15:30.791Z,3.29
2019-04-29T01:20:39.988Z,3.27
2019-04-29T01:25:49.046Z,3.45
2019-04-29T01:30:58.181Z,3.12
2019-04-29T01:36:07.685Z,3.30
2019-04-29T01:41:16.957Z,3.22
2019-04-29T01:46:26.017Z,3.42
2019-04-29T01:51:35.185Z,3.33
2019-04-29T01:56:44.237Z,3.49
2019-04-29T02:01:53.358Z,3.18
2019-04-29T02:07:02.408Z,3.36
2019-04-29T02:12:12.068Z,3.37
2019-04-29T02:17:21.098Z,3.38
2019-04-29T02:22:30.360Z,3.48
2019-04-29T02:27:39.417Z,3.47
2019-04-29T02:32:48.585Z,3.22
2019-04-29T02:37:57.627Z,3.61
2019-04-29T02:43:06.986Z,3.61
2019-04-29T02:48:16.038Z,3.34
2019-04-29T02:53:25.154Z,3.61
2019-04-29T02:58:34.225Z,3.34
2019-04-29T03:03:43.331Z,3.50
2019-04-29T03:08:52.396Z,3.13
2019-04-29T03:14:01.529Z,3.28
2019-04-29T03:19:10.571Z,3.48
2019-04-29T03:24:19.705Z,2.93
2019-04-29T03:29:28.718Z,3.59
2019-04-29T03:34:37.807Z,3.03
2019-04-29T03:39:46.844Z,3.37
2019-04-29T03:44:56.143Z,3.36
2019-04-29T03:50:05.070Z,3.49
2019-04-29T03:55:14.339Z,3.50
2019-04-29T04:00:23.393Z,3.32
2019-04-29T04:05:32.493Z,3.19
2019-04-29T04:10:41.561Z,3.37
2019-04-29T04:15:50.647Z,3.16
2019-04-29T04:20:59.718Z,3.36
2019-04-29T04:26:08.841Z,3.37
2019-04-29T04:31:17.984Z,3.35
2019-04-29T04:36:27.101Z,3.49
2019-04-29T04:41:36.127Z,3.03
2019-04-29T04:46:45.272Z,3.32
2019-04-29T04:51:54.318Z,2.92
2019-04-29T04:57:03.423Z,3.34
2019-04-29T05:02:12.453Z,3.35
2019-04-29T05:07:21.614Z,2.96
2019-04-29T05:12:30.928Z,3.03
2019-04-29T05:17:40.107Z,3.26
2019-04-29T05:22:49.144Z,3.03
2019-04-29T05:27:58.280Z,3.23
2019-04-29T05:33:07.331Z,3.36
2019-04-29T05:38:16.450Z,3.12
2019-04-29T05:43:27.148Z,3.49
2019-04-29T05:48:34.122Z,3.02
2019-04-29T05:53:43.168Z,3.08
2019-04-29T05:58:52.456Z,3.05
2019-04-29T06:04:01.501Z,2.89
2019-04-29T06:09:11.505Z,3.21
2019-04-29T06:14:22.073Z,2.86
2019-04-29T06:19:27.968Z,2.83
2019-04-29T06:24:40.964Z,2.91
2019-04-29T06:29:46.018Z,2.69
2019-04-29T06:34:55.295Z,2.73
2019-04-29T06:40:04.687Z,2.51
2019-04-29T06:45:13.760Z,2.59
2019-04-29T06:50:23.104Z,2.32
2019-04-29T06:55:32.203Z,2.26
2019-04-29T07:00:41.393Z,2.03
2019-04-29T07:05:51.658Z,2.27
2019-04-29T07:11:01.055Z,2.20
2019-04-29T07:16:07.666Z,1.96
2019-04-29T07:21:16.795Z,1.97
2019-04-29T07:26:25.838Z,1.99
2019-04-29T07:31:35.182Z,2.18
2019-04-29T07:36:43.586Z,2.02
2019-04-29T07:41:53.676Z,1.94
2019-04-29T07:47:02.502Z,2.26
2019-04-29T07:52:14.583Z,2.15
2019-04-29T07:57:19.149Z,2.19
2019-04-29T08:02:29.284Z,2.13
2019-04-29T08:07:28.262Z,2.36
2019-04-29T08:12:37.599Z,2.43
2019-04-29T08:17:46.699Z,2.01
2019-04-29T08:22:58.323Z,2.17
2019-04-29T08:28:04.448Z,1.74
2019-04-29T08:33:13.496Z,2.38
2019-04-29T08:38:22.604Z,2.21
2019-04-29T08:43:33.755Z,2.25
2019-04-29T08:48:32.218Z,1.86
2019-04-29T08:53:41.268Z,1.62
2019-04-29T08:58:51.157Z,1.67
2019-04-29T09:03:59.157Z,1.65
2019-04-29T09:09:10.671Z,2.12
2019-04-29T09:14:16.252Z,2.20
2019-04-29T09:19:25.313Z,2.00
2019-04-29T09:24:34.641Z,1.56
2019-04-29T09:29:46.419Z,1.91
2019-04-29T09:34:55.538Z,1.43
2019-04-29T09:40:01.935Z,1.82
2019-04-29T09:45:14.658Z,1.59
2019-04-29T09:50:19.720Z,1.77
2019-04-29T09:55:28.893Z,1.94
2019-04-29T10:00:40.751Z,1.45
2019-04-29T10:05:46.649Z,1.57
2019-04-29T10:10:55.690Z,1.22
2019-04-29T10:16:04.766Z,0.86
2019-04-29T10:21:16.429Z,1.12
2019-04-29T10:26:22.436Z,1.32
2019-04-29T10:31:31.474Z,0.91
2019-04-29T10:36:41.570Z,1.13
2019-04-29T10:41:49.832Z,0.96
2019-04-29T10:46:49.075Z,0.97
2019-04-29T10:52:02.501Z,1.00
2019-04-29T10:57:10.536Z,1.00
2019-04-29T11:02:15.947Z,1.22
2019-04-29T11:07:26.466Z,1.37
2019-04-29T11:12:32.800Z,1.47
2019-04-29T11:17:44.769Z,1.35
2019-04-29T11:22:50.599Z,1.25
2019-04-29T11:27:59.872Z,1.29
2019-04-29T11:33:08.930Z,1.13
2019-04-29T11:38:18.016Z,1.24
2019-04-29T11:43:27.063Z,1.05
2019-04-29T11:48:36.224Z,1.21
2019-04-29T11:53:45.263Z,1.13
2019-04-29T11:58:54.515Z,1.14
2019-04-29T12:04:03.566Z,1.19
2019-04-29T12:09:12.685Z,1.30
2019-04-29T12:14:21.764Z,1.36
2019-04-29T12:19:30.945Z,1.63
2019-04-29T12:24:39.979Z,1.13
2019-04-29T12:29:53.801Z,1.42
2019-04-29T12:34:57.678Z,1.38
2019-04-29T12:40:09.826Z,1.28
2019-04-29T12:45:19.496Z,1.30
2019-04-29T12:50:24.313Z,1.32
2019-04-29T12:55:44.130Z,1.36
2019-04-29T13:00:48.292Z,1.16
2019-04-29T13:05:58.073Z,0.96
2019-04-29T13:10:59.365Z,1.13
2019-04-29T13:16:08.429Z,1.00
2019-04-29T13:21:17.536Z,1.04
2019-04-29T13:26:28.622Z,0.89
2019-04-29T13:31:38.504Z,0.95
2019-04-29T13:36:44.024Z,0.93
2019-04-29T13:41:57.832Z,0.96
2019-04-29T13:47:01.917Z,1.06
2019-04-29T13:52:11.267Z,0.97
2019-04-29T13:57:20.337Z,1.16
2019-04-29T14:02:33.421Z,0.93
2019-04-29T14:07:39.565Z,0.94
2019-04-29T14:12:48.731Z,1.06
2019-04-29T14:17:55.513Z,0.96
2019-04-29T14:23:04.690Z,1.04
2019-04-29T14:28:13.776Z,1.04
2019-04-29T14:33:24.467Z,1.22
2019-04-29T14:38:31.714Z,1.10
2019-04-29T14:43:40.890Z,0.89
2019-04-29T14:48:49.950Z,1.03
2019-04-29T14:54:01.392Z,0.85
2019-04-29T14:59:07.909Z,0.96
2019-04-29T15:04:18.612Z,1.15
2019-04-29T15:09:25.629Z,0.90
2019-04-29T15:14:34.877Z,0.76
2019-04-29T15:19:48.251Z,0.86
2019-04-29T15:24:52.773Z,0.96
2019-04-29T15:30:01.989Z,1.02
2019-04-29T15:35:11.608Z,0.79
2019-04-29T15:40:25.478Z,0.95
2019-04-29T15:45:32.291Z,0.86
2019-04-29T15:50:39.072Z,0.86
2019-04-29T15:55:46.746Z,0.96
2019-04-29T16:01:11.391Z,0.76
2019-04-29T16:11:13.761Z,0.84
2019-04-29T16:16:23.011Z,0.83
2019-04-29T16:21:38.341Z,0.74
2019-04-29T16:26:40.801Z,0.97
2019-04-29T16:31:54.959Z,0.96
2019-04-29T16:36:58.549Z,0.79
2019-04-29T16:42:07.625Z,0.96
2019-04-29T16:47:17.561Z,0.93
2019-04-29T16:52:26.671Z,0.95
2019-04-29T16:57:35.969Z,1.13
2019-04-29T17:02:45.073Z,1.19
2019-04-29T17:07:54.290Z,1.22
2019-04-29T17:13:03.392Z,1.32
2019-04-29T17:18:12.801Z,1.14
2019-04-29T17:23:24.467Z,1.47
2019-04-29T17:28:30.569Z,1.24
2019-04-29T17:33:44.606Z,1.64
2019-04-29T17:38:48.329Z,1.40
2019-04-29T17:43:57.416Z,1.45
2019-04-29T17:49:06.758Z,1.34
2019-04-29T17:54:15.910Z,1.17
2019-04-29T17:59:29.560Z,1.16
2019-04-29T18:04:33.763Z,1.16
2019-04-29T18:09:43.010Z,1.27
2019-04-29T18:14:52.073Z,1.41
2019-04-29T18:20:01.391Z,1.10
2019-04-29T18:25:10.455Z,1.08
2019-04-29T18:30:35.433Z,1.09
2019-04-29T18:35:25.584Z,1.14
2019-04-29T18:40:35.690Z,1.16
2019-04-29T18:45:53.881Z,1.33
2019-04-29T18:50:50.647Z,1.14
2019-04-29T18:55:59.732Z,1.24
2019-04-29T19:01:08.914Z,1.39
2019-04-29T19:06:18.088Z,1.17
2019-04-29T19:11:32.453Z,1.34
2019-04-29T19:16:39.154Z,1.57
2019-04-29T19:21:45.541Z,1.35
2019-04-29T19:26:55.634Z,1.42
2019-04-29T19:32:02.069Z,1.54
2019-04-29T19:37:11.153Z,1.49
2019-04-29T19:42:29.047Z,1.56
2019-04-29T19:47:29.084Z,1.49
2019-04-29T19:52:38.266Z,1.48
2019-04-29T19:57:51.622Z,1.57
2019-04-29T20:02:58.416Z,1.79
2019-04-29T20:07:58.776Z,1.48
2019-04-29T20:13:05.327Z,1.60
2019-04-29T20:18:14.411Z,1.68
2019-04-29T20:23:26.209Z,1.68
2019-04-29T20:28:32.081Z,1.59
2019-04-29T20:33:42.071Z,1.27
2019-04-29T20:38:50.078Z,1.71
2019-04-29T20:44:00.964Z,1.34
2019-04-29T20:49:07.854Z,1.49
2019-04-29T20:54:19.389Z,1.51
2019-04-29T20:59:25.863Z,1.55
2019-04-29T21:04:44.739Z,1.45
2019-04-29T21:09:42.734Z,1.52
2019-04-29T21:14:51.852Z,1.58
2019-04-29T21:20:00.894Z,1.49
2019-04-29T21:25:10.054Z,1.46
2019-04-29T21:30:19.220Z,1.78
2019-04-29T21:35:28.360Z,1.76
2019-04-29T21:40:37.433Z,1.93
2019-04-29T21:45:48.372Z,1.72
2019-04-29T21:50:55.209Z,1.66
2019-04-29T21:56:09.007Z,1.93
2019-04-29T22:01:15.323Z,1.85
2019-04-29T22:06:13.456Z,1.73
2019-04-29T22:11:22.517Z,1.73
2019-04-29T22:16:31.690Z,1.88
2019-04-29T22:21:40.757Z,1.96
2019-04-29T22:26:50.102Z,1.84
2019-04-29T22:31:59.165Z,1.76
2019-04-29T22:37:08.273Z,1.47
2019-04-29T22:42:17.304Z,1.69
2019-04-29T22:47:26.416Z,1.81
2019-04-29T22:52:36.860Z,1.69
2019-04-29T22:57:44.872Z,1.77
2019-04-29T23:02:52.663Z,1.77
2019-04-29T23:08:02.331Z,1.51
2019-04-29T23:13:11.374Z,1.99
2019-04-29T23:18:26.772Z,2.04
2019-04-29T23:23:33.633Z,1.76
2019-04-29T23:28:37.732Z,1.79
2019-04-29T23:33:46.762Z,1.84
2019-04-29T23:38:56.866Z,1.84
2019-04-29T23:43:59.816Z,2.31
2019-04-29T23:49:06.637Z,2.09
2019-04-29T23:54:15.147Z,1.96
2019-04-29T23:59:21.654Z,1.99
